Afton, Michigan
Current Conditions -  °F | °C
As of 10:57 PM on Saturday 24 Jan 2015 (Local Time) from KSLH Reporting Station
Clear Clear  
Wind Chill:   Ceiling: Unl
Heat Index: 16°   Visibility: 10mi
Dew Point: 10°   Wind: 7mph
Humidity: 75%   Direction: 330°NNW
Pressure: 29.75"   Gusts: NA
Location:  45.36°N, 84.47°W
Report Text: KSLH 250357Z AUTO 33006KT 10SM CLR M08/M12 A2975 RMK AO2 T10881125
Loading
Personal Weather Stations






























Interactive Weather Map New forecast layout! Learn more

10-Day Weather Forecast

Advertisements
Track Severe Weather on mobile